Smoke Signal, Arizona
Current Conditions -  °F | °C
As of 4:53 PM on Saturday 25 Oct 2014 (Local Time) from KRQE Reporting Station
Clear Clear  
Wind Chill: 22°   Ceiling: Unl
Heat Index: 22°   Visibility: 10mi
Dew Point:   Wind: 16mph
Humidity: 25%   Direction: 230°SW
Pressure: 30.29"   Gusts: 21mph
Location:  36.1012°N, 109.584°W
Report Text: KRQE 252253Z AUTO 23014G18KT 10SM CLR 22/01 A3029 RMK AO2 SLP176 T02220011 TSNO
Loading
Personal Weather Stations






























Interactive Weather Map
Tropical Storm Tracking
New forecast layout! Learn more

10-Day Weather Forecast

Advertisements
Track Severe Weather on mobile